Time;durP1;ratioP1;P1;durP2;ratioP2;P2;SDS_P1;SDS_P2;PMS_P1;PMS_P2;Temp;Humidity;BMP_temperature;BMP_pressure;BME280_temperature;BME280_humidity;BME280_pressure;Samples;Min_cycle;Max_cycle;Signal;HPM_P1;HPM_P2
2020/12/03 00:02:20;;;;;;;23.20;13.20;;;;;;;;;;6197068;28;20034;-71
2020/12/03 00:05:20;;;;;;;23.73;13.53;;;;;;;;;;6204971;28;20053;-71
2020/12/03 00:08:21;;;;;;;21.40;12.77;;;;;;;;;;6203335;28;20021;-71
2020/12/03 00:11:22;;;;;;;23.67;13.88;;;;;;;;;;6205901;28;20034;-71
2020/12/03 00:14:23;;;;;;;22.95;13.65;;;;;;;;;;6210410;28;20053;-71
2020/12/03 00:17:23;;;;;;;24.40;13.73;;;;;;;;;;6208149;28;20238;-72
2020/12/03 00:20:23;;;;;;;22.50;13.67;;;;;;;;;;6209944;28;20156;-71
2020/12/03 00:23:24;;;;;;;25.10;13.03;;;;;;;;;;6201370;28;20028;-71
2020/12/03 00:26:28;;;;;;;20.87;13.40;;;;;;;;;;6202246;28;20453;-71
2020/12/03 00:29:28;;;;;;;22.70;12.70;;;;;;;;;;6202490;28;20607;-71
2020/12/03 00:32:29;;;;;;;21.23;13.03;;;;;;;;;;6202419;28;20025;-71
2020/12/03 00:35:29;;;;;;;20.93;12.80;;;;;;;;;;6202839;28;20029;-71
2020/12/03 00:38:29;;;;;;;24.73;12.40;;;;;;;;;;6191423;28;20524;-71
2020/12/03 00:41:29;;;;;;;24.93;12.70;;;;;;;;;;6206450;28;20115;-71
2020/12/03 00:44:30;;;;;;;20.73;12.50;;;;;;;;;;6201613;28;20133;-71
2020/12/03 00:47:30;;;;;;;19.27;12.63;;;;;;;;;;6200225;28;20077;-71
2020/12/03 00:50:30;;;;;;;19.90;12.70;;;;;;;;;;6209607;28;20045;-71
2020/12/03 00:53:31;;;;;;;21.63;13.23;;;;;;;;;;6202150;28;20038;-71
2020/12/03 00:56:31;;;;;;;22.13;12.73;;;;;;;;;;6207155;28;20092;-71
2020/12/03 00:59:31;;;;;;;22.53;12.83;;;;;;;;;;6204800;28;20109;-71
2020/12/03 01:02:31;;;;;;;23.83;13.27;;;;;;;;;;6212873;28;20352;-71
2020/12/03 01:05:32;;;;;;;21.47;12.97;;;;;;;;;;6213662;28;20362;-71
2020/12/03 01:08:32;;;;;;;20.63;12.17;;;;;;;;;;6205904;28;20399;-71
2020/12/03 01:11:32;;;;;;;20.97;13.03;;;;;;;;;;6210356;28;20052;-71
2020/12/03 01:14:34;;;;;;;22.90;13.53;;;;;;;;;;6203852;28;20092;-71
2020/12/03 01:17:34;;;;;;;;;;;;;;;;;;6206804;28;20026;-71
2020/12/03 01:20:34;;;;;;;18.52;11.05;;;;;;;;;;6209679;28;19921;-71
2020/12/03 01:23:35;;;;;;;20.07;12.43;;;;;;;;;;6215909;28;20291;-71
2020/12/03 01:26:35;;;;;;;21.37;12.80;;;;;;;;;;5856051;28;9999810;-71
2020/12/03 01:29:35;;;;;;;20.37;12.17;;;;;;;;;;6203576;28;20037;-71
2020/12/03 01:32:36;;;;;;;21.73;13.17;;;;;;;;;;6212665;28;20076;-71
2020/12/03 01:35:36;;;;;;;21.83;12.93;;;;;;;;;;6210802;28;20696;-71
2020/12/03 01:38:36;;;;;;;19.83;12.27;;;;;;;;;;6208202;28;20038;-71
2020/12/03 01:41:36;;;;;;;22.27;13.13;;;;;;;;;;6203881;28;20036;-71
2020/12/03 01:44:42;;;;;;;20.50;12.33;;;;;;;;;;6208811;28;20085;-71
2020/12/03 01:47:42;;;;;;;20.52;12.23;;;;;;;;;;6208476;28;20089;-71
2020/12/03 01:50:43;;;;;;;23.47;13.13;;;;;;;;;;6212225;28;20033;-71
2020/12/03 01:53:43;;;;;;;20.87;11.57;;;;;;;;;;6206970;28;20129;-71
2020/12/03 01:56:50;;;;;;;17.90;12.13;;;;;;;;;;6203742;28;20368;-71
2020/12/03 01:59:57;;;;;;;18.13;11.60;;;;;;;;;;6206236;28;20459;-71
2020/12/03 02:02:57;;;;;;;21.90;11.10;;;;;;;;;;6206032;28;20060;-71
2020/12/03 02:05:57;;;;;;;18.70;12.00;;;;;;;;;;6211215;28;20125;-71
2020/12/03 02:08:58;;;;;;;18.73;11.17;;;;;;;;;;6204085;28;20356;-71
2020/12/03 02:11:59;;;;;;;19.03;11.53;;;;;;;;;;6202653;28;20593;-71
2020/12/03 02:14:59;;;;;;;18.80;11.63;;;;;;;;;;6203314;28;20022;-71
2020/12/03 02:17:59;;;;;;;17.50;11.30;;;;;;;;;;6205626;28;20022;-71
2020/12/03 02:20:59;;;;;;;17.33;11.47;;;;;;;;;;6203633;28;20036;-71
2020/12/03 02:24:00;;;;;;;18.77;11.13;;;;;;;;;;6192591;28;20021;-71
2020/12/03 02:27:00;;;;;;;19.10;11.43;;;;;;;;;;6207081;28;20507;-71
2020/12/03 02:30:01;;;;;;;16.70;10.67;;;;;;;;;;6201865;28;20041;-71
2020/12/03 02:33:01;;;;;;;17.40;11.40;;;;;;;;;;6209833;28;20091;-71
2020/12/03 02:36:02;;;;;;;19.17;11.60;;;;;;;;;;6207106;28;20045;-71
2020/12/03 02:39:03;;;;;;;19.70;11.80;;;;;;;;;;6208358;28;20484;-71
2020/12/03 02:42:07;;;;;;;18.03;11.57;;;;;;;;;;6203548;28;20124;-71
2020/12/03 02:45:08;;;;;;;18.95;11.50;;;;;;;;;;6202817;28;20109;-71
2020/12/03 02:48:08;;;;;;;18.47;11.00;;;;;;;;;;6199109;28;20026;-71
2020/12/03 02:51:08;;;;;;;19.50;11.00;;;;;;;;;;6205966;28;20096;-71
2020/12/03 02:54:09;;;;;;;17.93;11.63;;;;;;;;;;6202018;28;20460;-71
2020/12/03 02:57:10;;;;;;;17.90;10.82;;;;;;;;;;6204631;28;20083;-71
2020/12/03 03:00:10;;;;;;;19.27;10.83;;;;;;;;;;6191032;28;20041;-71
2020/12/03 03:03:11;;;;;;;19.07;11.27;;;;;;;;;;6202442;28;20077;-71
2020/12/03 03:06:11;;;;;;;17.87;10.87;;;;;;;;;;6205208;28;20057;-71
2020/12/03 03:09:11;;;;;;;16.73;10.73;;;;;;;;;;6203468;28;20109;-71
2020/12/03 03:12:12;;;;;;;18.10;11.23;;;;;;;;;;6206958;28;20479;-71
2020/12/03 03:15:12;;;;;;;17.97;11.20;;;;;;;;;;6210574;28;20061;-71
2020/12/03 03:18:12;;;;;;;18.23;10.37;;;;;;;;;;6205002;28;20112;-71
2020/12/03 03:21:12;;;;;;;17.97;11.10;;;;;;;;;;6205825;28;20034;-71
2020/12/03 03:24:14;;;;;;;18.73;11.07;;;;;;;;;;6209533;28;20057;-71
2020/12/03 03:27:14;;;;;;;18.27;10.77;;;;;;;;;;6206504;28;20460;-71
2020/12/03 03:30:16;;;;;;;18.83;11.47;;;;;;;;;;6198489;28;20022;-71
2020/12/03 03:33:16;;;;;;;16.48;10.45;;;;;;;;;;6199232;28;20057;-71
2020/12/03 03:36:17;;;;;;;18.27;10.73;;;;;;;;;;6200694;28;20030;-71
2020/12/03 03:39:18;;;;;;;17.90;11.13;;;;;;;;;;6202128;28;20169;-71
2020/12/03 03:42:18;;;;;;;;;;;;;;;;;;6202704;28;20044;-71
2020/12/03 03:45:19;;;;;;;13.10;9.00;;;;;;;;;;6201330;28;19914;-71
2020/12/03 03:48:19;;;;;;;14.80;10.33;;;;;;;;;;6207387;28;20033;-71
2020/12/03 03:51:19;;;;;;;15.77;10.77;;;;;;;;;;6209120;28;20033;-72
2020/12/03 03:54:19;;;;;;;18.67;10.67;;;;;;;;;;6206490;28;20077;-71
2020/12/03 03:57:20;;;;;;;18.33;10.80;;;;;;;;;;6204487;28;20037;-71
2020/12/03 04:00:20;;;;;;;19.33;10.97;;;;;;;;;;6215011;28;20052;-71
2020/12/03 04:03:21;;;;;;;16.57;10.70;;;;;;;;;;6203729;28;20083;-71
2020/12/03 04:06:22;;;;;;;17.00;11.38;;;;;;;;;;6194606;28;20041;-71
2020/12/03 04:09:22;;;;;;;18.00;10.87;;;;;;;;;;6204438;28;20147;-72
2020/12/03 04:12:22;;;;;;;20.07;10.57;;;;;;;;;;6206067;28;20025;-71
2020/12/03 04:15:22;;;;;;;21.03;10.60;;;;;;;;;;6199408;28;20043;-72
2020/12/03 04:18:26;;;;;;;18.90;10.80;;;;;;;;;;6204928;28;20366;-72
2020/12/03 04:21:27;;;;;;;15.77;10.25;;;;;;;;;;6221505;28;20034;-72
2020/12/03 04:24:27;;;;;;;16.60;11.23;;;;;;;;;;6198388;28;20531;-72
2020/12/03 04:27:27;;;;;;;15.93;10.30;;;;;;;;;;6204705;28;20026;-72
2020/12/03 04:30:27;;;;;;;15.37;9.70;;;;;;;;;;6214865;28;20080;-71
2020/12/03 04:33:28;;;;;;;18.53;10.73;;;;;;;;;;6206083;28;20033;-71
2020/12/03 04:36:28;;;;;;;15.77;10.23;;;;;;;;;;6212624;28;20503;-72
2020/12/03 04:39:28;;;;;;;15.20;9.67;;;;;;;;;;6202901;28;20026;-72
2020/12/03 04:42:30;;;;;;;15.93;9.83;;;;;;;;;;6208119;28;20783;-72
2020/12/03 04:45:30;;;;;;;;;;;;;;;;;;6203344;28;20026;-72
2020/12/03 04:48:33;;;;;;;15.88;9.85;;;;;;;;;;6202313;28;19918;-72
2020/12/03 04:51:37;;;;;;;16.02;9.57;;;;;;;;;;6212520;28;20510;-72
2020/12/03 04:54:41;;;;;;;16.23;10.25;;;;;;;;;;6204735;28;20018;-72
2020/12/03 04:57:49;;;;;;;14.98;9.68;;;;;;;;;;6201721;28;20021;-72
2020/12/03 05:00:49;;;;;;;16.33;9.63;;;;;;;;;;6209400;28;20025;-72
2020/12/03 05:04:01;;;;;;;18.07;10.17;;;;;;;;;;6198622;28;20412;-72
2020/12/03 05:07:04;;;;;;;16.98;10.63;;;;;;;;;;6205450;28;20022;-72
2020/12/03 05:10:07;;;;;;;17.40;10.15;;;;;;;;;;6205985;28;20104;-72
2020/12/03 05:13:14;;;;;;;15.45;9.70;;;;;;;;;;6202089;28;20352;-72
2020/12/03 05:16:34;;;;;;;18.27;10.18;;;;;;;;;;6201451;28;20037;-72
2020/12/03 05:19:38;;;;;;;15.32;9.73;;;;;;;;;;6204249;28;20145;-72
2020/12/03 05:22:39;;;;;;;18.35;10.18;;;;;;;;;;6197342;28;20511;-72
2020/12/03 05:25:39;;;;;;;15.17;9.87;;;;;;;;;;6205152;28;20184;-72
2020/12/03 05:28:42;;;;;;;17.17;10.03;;;;;;;;;;6204434;28;20058;-72
2020/12/03 05:31:44;;;;;;;18.27;9.95;;;;;;;;;;6208929;28;20419;-72
2020/12/03 05:34:44;;;;;;;;;;;;;;;;;;6214693;28;20246;-73
2020/12/03 05:37:44;;;;;;;14.10;8.85;;;;;;;;;;6204527;28;19918;-73
2020/12/03 05:40:53;;;;;;;15.80;9.10;;;;;;;;;;6208545;28;20038;-74
2020/12/03 05:43:53;;;;;;;12.84;7.80;;;;;;;;;;5858425;28;10001198;-73
2020/12/03 05:46:55;;;;;;;15.03;9.37;;;;;;;;;;6199948;28;20398;-73
2020/12/03 05:49:57;;;;;;;15.65;9.15;;;;;;;;;;6206392;28;20180;-72
2020/12/03 05:52:57;;;;;;;14.80;9.30;;;;;;;;;;6202469;28;20069;-68
2020/12/03 05:56:11;;;;;;;16.20;9.97;;;;;;;;;;6210587;28;20025;-72
2020/12/03 05:59:18;;;;;;;14.20;9.07;;;;;;;;;;6197991;28;20053;-71
2020/12/03 06:02:27;;;;;;;15.07;9.23;;;;;;;;;;6197577;28;20026;-73
2020/12/03 06:05:35;;;;;;;14.20;9.15;;;;;;;;;;6203405;28;20376;-70
2020/12/03 06:08:35;;;;;;;14.63;9.15;;;;;;;;;;6219226;28;20058;-73
2020/12/03 06:11:38;;;;;;;12.97;8.60;;;;;;;;;;6210395;28;20036;-72
2020/12/03 06:14:41;;;;;;;13.27;9.38;;;;;;;;;;6212839;28;20539;-69
2020/12/03 06:17:57;;;;;;;14.68;9.27;;;;;;;;;;6222787;28;20030;-71
2020/12/03 06:21:10;;;;;;;14.65;9.13;;;;;;;;;;6207863;28;20414;-73
2020/12/03 06:24:43;;;;;;;15.48;10.05;;;;;;;;;;6197009;28;20019;-73
2020/12/03 06:27:59;;;;;;;14.68;9.30;;;;;;;;;;6190203;28;20095;-72
2020/12/03 06:31:10;;;;;;;16.33;9.82;;;;;;;;;;6204912;28;20168;-77
2020/12/03 06:34:17;;;;;;;15.38;9.85;;;;;;;;;;6211134;28;20685;-74
2020/12/03 06:37:22;;;;;;;17.52;10.55;;;;;;;;;;6209632;28;20464;-72
2020/12/03 06:40:25;;;;;;;14.25;9.05;;;;;;;;;;6202047;28;20029;-72
2020/12/03 06:43:28;;;;;;;18.40;10.40;;;;;;;;;;6204083;28;20025;-73
2020/12/03 06:46:32;;;;;;;15.85;10.23;;;;;;;;;;6203293;28;20080;-73
2020/12/03 06:49:35;;;;;;;16.17;10.65;;;;;;;;;;6217601;28;20029;-73
2020/12/03 06:52:58;;;;;;;15.85;9.65;;;;;;;;;;6208226;28;20145;-73
2020/12/03 06:56:17;;;;;;;15.40;9.80;;;;;;;;;;6198092;28;20559;-70
2020/12/03 06:59:28;;;;;;;16.48;9.80;;;;;;;;;;6208491;28;20467;-67
2020/12/03 07:02:48;;;;;;;14.82;9.57;;;;;;;;;;5859212;28;9999628;-68
2020/12/03 07:05:52;;;;;;;12.75;8.88;;;;;;;;;;6204164;28;20029;-68
2020/12/03 07:08:59;;;;;;;16.08;9.60;;;;;;;;;;6204993;28;20026;-68
2020/12/03 07:12:18;;;;;;;17.83;9.23;;;;;;;;;;6214742;28;20546;-68
2020/12/03 07:15:28;;;;;;;17.08;9.02;;;;;;;;;;6201445;28;20044;-68
2020/12/03 07:18:32;;;;;;;15.40;9.63;;;;;;;;;;6210473;28;20081;-68
2020/12/03 07:21:49;;;;;;;15.35;8.98;;;;;;;;;;6210540;28;20014;-68
2020/12/03 07:24:50;;;;;;;16.60;9.85;;;;;;;;;;6206004;28;20317;-68
2020/12/03 07:28:09;;;;;;;14.63;9.52;;;;;;;;;;6200194;28;20409;-68
2020/12/03 07:31:35;;;;;;;15.57;9.30;;;;;;;;;;6214422;28;20034;-68
2020/12/03 07:34:46;;;;;;;14.82;8.60;;;;;;;;;;6203942;28;20039;-68
2020/12/03 07:38:05;;;;;;;13.18;8.15;;;;;;;;;;6202010;28;20096;-68
2020/12/03 07:41:06;;;;;;;13.98;8.80;;;;;;;;;;6207427;28;20031;-68
2020/12/03 07:44:09;;;;;;;13.13;8.53;;;;;;;;;;6211421;28;20037;-69
2020/12/03 07:47:18;;;;;;;13.50;9.18;;;;;;;;;;6199750;28;20095;-68
2020/12/03 07:50:21;;;;;;;13.57;7.90;;;;;;;;;;6205336;28;20365;-68
2020/12/03 07:53:23;;;;;;;12.65;8.05;;;;;;;;;;6209334;28;20015;-69
2020/12/03 07:56:24;;;;;;;12.43;7.85;;;;;;;;;;6208192;28;20017;-68
2020/12/03 07:59:24;;;;;;;12.98;8.40;;;;;;;;;;6219489;28;20492;-69
2020/12/03 08:02:54;;;;;;;13.43;8.30;;;;;;;;;;6203429;28;20035;-69
2020/12/03 08:06:17;;;;;;;14.50;9.07;;;;;;;;;;6197016;28;20117;-69
2020/12/03 08:09:22;;;;;;;14.02;8.68;;;;;;;;;;6214429;28;20446;-68
2020/12/03 08:12:25;;;;;;;13.18;8.55;;;;;;;;;;6209583;28;20022;-68
2020/12/03 08:15:32;;;;;;;14.27;7.88;;;;;;;;;;6205993;28;20029;-68
2020/12/03 08:18:38;;;;;;;11.90;7.53;;;;;;;;;;6209814;28;20069;-68
2020/12/03 08:21:39;;;;;;;11.48;7.38;;;;;;;;;;6207096;28;20018;-68
2020/12/03 08:24:39;;;;;;;14.07;8.00;;;;;;;;;;6205709;28;20033;-68
2020/12/03 08:27:40;;;;;;;13.93;8.33;;;;;;;;;;6204343;28;20034;-68
2020/12/03 08:30:41;;;;;;;14.07;8.50;;;;;;;;;;6205236;28;20036;-69
2020/12/03 08:33:41;;;;;;;13.30;8.57;;;;;;;;;;6229737;28;20273;-68
2020/12/03 08:36:42;;;;;;;12.30;7.73;;;;;;;;;;6211655;28;20364;-68
2020/12/03 08:39:51;;;;;;;15.77;7.77;;;;;;;;;;6201170;28;20456;-68
2020/12/03 08:42:51;;;;;;;12.93;8.13;;;;;;;;;;6201084;28;20048;-68
2020/12/03 08:45:56;;;;;;;13.07;8.43;;;;;;;;;;6199809;28;20113;-68
2020/12/03 08:48:57;;;;;;;12.10;7.63;;;;;;;;;;6197511;28;20018;-68
2020/12/03 08:51:59;;;;;;;11.57;7.70;;;;;;;;;;6199528;28;20389;-68
2020/12/03 08:55:04;;;;;;;12.00;7.88;;;;;;;;;;6213567;28;20053;-68
2020/12/03 08:58:05;;;;;;;13.52;8.07;;;;;;;;;;6198125;28;20022;-68
2020/12/03 09:01:07;;;;;;;14.93;8.10;;;;;;;;;;6200714;28;20034;-68
2020/12/03 09:04:08;;;;;;;12.60;7.20;;;;;;;;;;5851367;28;10000346;-68
2020/12/03 09:07:11;;;;;;;11.88;7.72;;;;;;;;;;6200456;28;20325;-68
2020/12/03 09:10:12;;;;;;;10.93;6.95;;;;;;;;;;6217960;28;20018;-68
2020/12/03 09:13:15;;;;;;;11.37;7.50;;;;;;;;;;6204625;28;20092;-68
2020/12/03 09:16:17;;;;;;;12.00;7.35;;;;;;;;;;6210703;28;20037;-68
2020/12/03 09:19:23;;;;;;;14.93;7.18;;;;;;;;;;6212100;28;20029;-68
2020/12/03 09:22:24;;;;;;;11.68;7.07;;;;;;;;;;6205174;28;20105;-68
2020/12/03 09:25:24;;;;;;;10.63;6.97;;;;;;;;;;6227255;28;20467;-68
2020/12/03 09:28:26;;;;;;;10.93;7.33;;;;;;;;;;6210053;28;20452;-67
2020/12/03 09:31:26;;;;;;;12.25;7.75;;;;;;;;;;6204250;28;20037;-70
2020/12/03 09:34:29;;;;;;;10.90;7.73;;;;;;;;;;6202888;28;20061;-69
2020/12/03 09:37:29;;;;;;;11.77;7.40;;;;;;;;;;6208407;28;20104;-69
2020/12/03 09:40:30;;;;;;;10.43;7.10;;;;;;;;;;6213391;28;20437;-70
2020/12/03 09:43:31;;;;;;;12.25;6.85;;;;;;;;;;6209592;28;20113;-69
2020/12/03 09:46:33;;;;;;;10.63;7.07;;;;;;;;;;6213164;28;20030;-69
2020/12/03 09:49:34;;;;;;;10.48;6.05;;;;;;;;;;6204335;28;20018;-69
2020/12/03 09:52:35;;;;;;;10.33;7.23;;;;;;;;;;6212862;28;20375;-70
2020/12/03 09:55:35;;;;;;;11.20;7.43;;;;;;;;;;6209484;28;20498;-69
2020/12/03 09:58:36;;;;;;;12.33;7.50;;;;;;;;;;6203892;28;20030;-69
2020/12/03 10:01:51;;;;;;;12.50;7.63;;;;;;;;;;6205289;28;20030;-69
2020/12/03 10:05:10;;;;;;;12.02;8.00;;;;;;;;;;6201292;28;20057;-67
2020/12/03 10:08:30;;;;;;;11.93;8.20;;;;;;;;;;6209321;28;20364;-69
2020/12/03 10:11:45;;;;;;;11.55;7.47;;;;;;;;;;6213032;28;20041;-69
2020/12/03 10:15:03;;;;;;;12.07;6.90;;;;;;;;;;6203532;28;20066;-67
2020/12/03 10:18:08;;;;;;;13.75;8.32;;;;;;;;;;6208151;28;20410;-69
2020/12/03 10:21:08;;;;;;;12.68;8.20;;;;;;;;;;6206609;28;20070;-67
2020/12/03 10:24:24;;;;;;;16.73;8.37;;;;;;;;;;6201352;28;20010;-69
2020/12/03 10:27:25;;;;;;;13.90;9.18;;;;;;;;;;6218174;28;20140;-67
2020/12/03 10:30:33;;;;;;;13.07;9.02;;;;;;;;;;6207238;28;20026;-67
2020/12/03 10:33:37;;;;;;;14.18;9.02;;;;;;;;;;6198830;28;20018;-67
2020/12/03 10:36:47;;;;;;;12.77;8.10;;;;;;;;;;6211716;28;20570;-67
2020/12/03 10:40:08;;;;;;;11.38;7.40;;;;;;;;;;6212371;28;20017;-67
2020/12/03 10:43:11;;;;;;;12.98;8.52;;;;;;;;;;6203102;28;20329;-68
2020/12/03 10:46:13;;;;;;;10.77;7.95;;;;;;;;;;6206382;28;20037;-67
2020/12/03 10:49:15;;;;;;;12.93;8.25;;;;;;;;;;6218670;28;20026;-67
2020/12/03 10:52:23;;;;;;;14.30;8.25;;;;;;;;;;6208777;28;20022;-67
2020/12/03 10:55:23;;;;;;;12.52;8.38;;;;;;;;;;6209862;28;20026;-68
2020/12/03 10:58:28;;;;;;;11.77;8.00;;;;;;;;;;6216601;28;20109;-68
2020/12/03 11:01:29;;;;;;;14.15;8.75;;;;;;;;;;6209459;28;20026;-68
2020/12/03 11:04:31;;;;;;;13.85;8.35;;;;;;;;;;6225085;28;20076;-68
2020/12/03 11:07:32;;;;;;;15.27;9.63;;;;;;;;;;6212105;28;20092;-68
2020/12/03 11:10:33;;;;;;;13.95;8.80;;;;;;;;;;6201932;28;20018;-69
2020/12/03 11:13:33;;;;;;;12.83;8.50;;;;;;;;;;6210155;28;20117;-69
2020/12/03 11:16:36;;;;;;;11.40;8.00;;;;;;;;;;6204135;28;20297;-69
2020/12/03 11:19:37;;;;;;;14.32;9.50;;;;;;;;;;6211626;28;20087;-69
2020/12/03 11:22:38;;;;;;;12.50;8.43;;;;;;;;;;6203841;28;20014;-69
2020/12/03 11:25:39;;;;;;;14.15;8.93;;;;;;;;;;6199238;28;20468;-69
2020/12/03 11:28:39;;;;;;;8.90;7.07;;;;;;;;;;6206494;28;20064;-69
2020/12/03 11:31:40;;;;;;;12.73;8.60;;;;;;;;;;6200424;28;20038;-70
2020/12/03 11:34:41;;;;;;;14.73;8.52;;;;;;;;;;6208279;28;20030;-69
2020/12/03 11:37:42;;;;;;;13.53;8.83;;;;;;;;;;6203157;28;20022;-70
2020/12/03 11:40:52;;;;;;;13.88;8.55;;;;;;;;;;6208533;28;20026;-70
2020/12/03 11:50:37;;;;;;;11.90;7.72;;;;;;;;;;6200980;28;20113;-70
2020/12/03 11:53:37;;;;;;;12.77;8.50;;;;;;;;;;6201519;28;20026;-70
2020/12/03 11:56:38;;;;;;;12.50;8.57;;;;;;;;;;6211685;28;20026;-70
2020/12/03 11:59:42;;;;;;;13.43;8.57;;;;;;;;;;6212135;28;20395;-73
2020/12/03 12:02:42;;;;;;;12.50;7.72;;;;;;;;;;6217170;28;20739;-70
2020/12/03 12:08:57;;;;;;;9.93;7.47;;;;;;;;;;6202523;28;20146;-70
2020/12/03 12:11:57;;;;;;;10.95;7.45;;;;;;;;;;6212195;28;20344;-70
2020/12/03 12:14:58;;;;;;;14.17;8.13;;;;;;;;;;6210547;28;20033;-70
2020/12/03 12:17:58;;;;;;;9.73;6.77;;;;;;;;;;6197749;28;20033;-69
2020/12/03 12:20:58;;;;;;;14.30;7.53;;;;;;;;;;6204110;28;20034;-69
2020/12/03 12:23:58;;;;;;;11.83;8.33;;;;;;;;;;6214114;28;20030;-70
2020/12/03 12:26:59;;;;;;;10.93;7.60;;;;;;;;;;6198009;28;20506;-69
2020/12/03 12:29:59;;;;;;;9.70;7.40;;;;;;;;;;6201359;28;20072;-69
2020/12/03 12:32:59;;;;;;;11.73;7.90;;;;;;;;;;6214896;28;20053;-70
2020/12/03 12:36:05;;;;;;;12.67;8.63;;;;;;;;;;6201291;28;20029;-72
2020/12/03 12:39:05;;;;;;;11.50;8.13;;;;;;;;;;6199715;28;20060;-70
2020/12/03 12:42:07;;;;;;;11.73;8.20;;;;;;;;;;6210062;28;20026;-70
2020/12/03 12:45:07;;;;;;;12.10;8.02;;;;;;;;;;6198821;28;20124;-69
2020/12/03 12:48:07;;;;;;;12.37;7.83;;;;;;;;;;6219593;28;20026;-69
2020/12/03 12:51:07;;;;;;;12.07;7.93;;;;;;;;;;6207534;28;20109;-69
2020/12/03 12:54:08;;;;;;;11.17;7.60;;;;;;;;;;6207468;28;20125;-69
2020/12/03 12:57:08;;;;;;;13.10;7.50;;;;;;;;;;6208884;28;20100;-69
2020/12/03 13:00:08;;;;;;;11.07;8.03;;;;;;;;;;6203475;28;20021;-69
2020/12/03 13:03:09;;;;;;;13.50;8.00;;;;;;;;;;6205718;28;20168;-69
2020/12/03 13:06:09;;;;;;;11.43;7.78;;;;;;;;;;6199111;28;22401;-69
2020/12/03 13:09:10;;;;;;;11.33;7.40;;;;;;;;;;6211740;28;20032;-69
2020/12/03 13:12:11;;;;;;;9.57;6.70;;;;;;;;;;6206163;28;20030;-70
2020/12/03 13:15:11;;;;;;;12.37;7.73;;;;;;;;;;6201649;28;20089;-68
2020/12/03 13:18:12;;;;;;;11.70;7.80;;;;;;;;;;6205090;28;20026;-69
2020/12/03 13:21:12;;;;;;;12.00;8.57;;;;;;;;;;6199790;28;20152;-63
2020/12/03 13:24:13;;;;;;;12.23;7.80;;;;;;;;;;6209734;28;20116;-64
2020/12/03 13:27:13;;;;;;;11.73;7.93;;;;;;;;;;6205661;28;20019;-65
2020/12/03 13:30:15;;;;;;;12.00;8.20;;;;;;;;;;6210436;28;20284;-63
2020/12/03 13:33:15;;;;;;;11.23;7.95;;;;;;;;;;6202475;28;20038;-63
2020/12/03 13:36:17;;;;;;;12.77;8.00;;;;;;;;;;6209909;28;20478;-62
2020/12/03 13:39:17;;;;;;;11.25;8.40;;;;;;;;;;6209275;28;20369;-63
2020/12/03 13:42:18;;;;;;;11.00;7.40;;;;;;;;;;6203955;28;20665;-63
2020/12/03 13:45:20;;;;;;;12.13;8.17;;;;;;;;;;6204665;28;20050;-64
2020/12/03 13:48:20;;;;;;;;;;;;;;;;;;6194526;28;20279;-64
2020/12/03 13:51:20;;;;;;;9.97;7.13;;;;;;;;;;6202615;28;19910;-64
2020/12/03 13:54:21;;;;;;;12.77;8.27;;;;;;;;;;6204175;28;20121;-64
2020/12/03 13:57:21;;;;;;;13.17;7.53;;;;;;;;;;6208627;28;20459;-63
2020/12/03 14:00:22;;;;;;;11.73;8.23;;;;;;;;;;6211494;28;20352;-66
2020/12/03 14:03:22;;;;;;;12.00;7.63;;;;;;;;;;6207347;28;20029;-65
2020/12/03 14:06:22;;;;;;;11.50;7.83;;;;;;;;;;5862605;28;10000104;-65
2020/12/03 14:09:22;;;;;;;11.77;7.73;;;;;;;;;;6200248;28;20121;-65
2020/12/03 14:12:23;;;;;;;13.80;7.97;;;;;;;;;;6202638;28;20037;-65
2020/12/03 14:15:23;;;;;;;11.93;6.97;;;;;;;;;;6211017;28;20421;-65
2020/12/03 14:18:23;;;;;;;13.40;8.07;;;;;;;;;;6215374;28;20037;-65
2020/12/03 14:21:24;;;;;;;13.47;7.73;;;;;;;;;;6206513;28;20467;-65
2020/12/03 14:24:24;;;;;;;11.43;7.73;;;;;;;;;;6205429;28;20504;-65
2020/12/03 14:27:24;;;;;;;11.17;8.03;;;;;;;;;;6210159;28;20033;-65
2020/12/03 14:30:25;;;;;;;12.20;8.00;;;;;;;;;;6205287;28;20416;-65
2020/12/03 14:33:25;;;;;;;10.53;7.63;;;;;;;;;;6200040;28;20022;-67
2020/12/03 14:36:26;;;;;;;11.93;7.43;;;;;;;;;;6217251;28;20329;-65
2020/12/03 14:39:26;;;;;;;10.70;7.30;;;;;;;;;;6222343;28;20025;-64
2020/12/03 14:42:26;;;;;;;13.27;7.87;;;;;;;;;;6221497;28;20388;-63
2020/12/03 14:45:26;;;;;;;10.53;7.33;;;;;;;;;;6221169;28;20026;-64
2020/12/03 14:48:27;;;;;;;11.13;7.30;;;;;;;;;;6224946;28;20045;-64
2020/12/03 14:51:36;;;;;;;11.37;7.57;;;;;;;;;;6223997;28;20026;-65
2020/12/03 14:54:37;;;;;;;10.23;7.25;;;;;;;;;;6222420;28;20022;-63
2020/12/03 14:57:37;;;;;;;14.20;7.13;;;;;;;;;;6224680;28;20014;-64
2020/12/03 15:00:38;;;;;;;11.90;7.27;;;;;;;;;;6221649;28;20034;-65
2020/12/03 15:03:39;;;;;;;10.63;6.55;;;;;;;;;;6219913;28;20057;-67
2020/12/03 15:06:39;;;;;;;10.70;7.07;;;;;;;;;;6220338;28;20048;-67
2020/12/03 15:09:41;;;;;;;13.67;7.83;;;;;;;;;;6221154;28;20045;-70
2020/12/03 15:12:42;;;;;;;12.57;7.43;;;;;;;;;;6219290;28;20022;-65
2020/12/03 15:15:42;;;;;;;11.73;7.17;;;;;;;;;;6222883;28;20125;-67
2020/12/03 15:18:42;;;;;;;10.57;7.17;;;;;;;;;;6218548;28;20411;-66
2020/12/03 15:21:42;;;;;;;9.60;6.93;;;;;;;;;;6218856;28;20461;-64
2020/12/03 15:24:43;;;;;;;11.33;7.40;;;;;;;;;;6219844;28;20101;-66
2020/12/03 15:27:43;;;;;;;11.17;7.60;;;;;;;;;;6220021;28;20022;-67
2020/12/03 15:30:43;;;;;;;14.20;7.67;;;;;;;;;;6218347;28;20030;-64
2020/12/03 15:33:44;;;;;;;11.93;7.13;;;;;;;;;;6218858;28;20728;-63
2020/12/03 15:37:04;;;;;;;11.20;7.40;;;;;;;;;;6217925;28;20071;-63
2020/12/03 15:40:04;;;;;;;10.02;6.82;;;;;;;;;;6221814;28;21174;-64
2020/12/03 15:43:04;;;;;;;11.33;7.67;;;;;;;;;;6218234;28;20030;-65
2020/12/03 15:46:04;;;;;;;11.37;7.70;;;;;;;;;;6220860;28;20021;-64
2020/12/03 15:49:05;;;;;;;11.50;7.40;;;;;;;;;;6222872;28;20029;-68
2020/12/03 15:52:05;;;;;;;10.83;7.33;;;;;;;;;;6223000;28;20030;-67
2020/12/03 15:55:06;;;;;;;11.80;7.77;;;;;;;;;;6222182;28;20455;-67
2020/12/03 15:58:06;;;;;;;9.90;6.60;;;;;;;;;;6222528;28;20091;-67
2020/12/03 16:01:06;;;;;;;10.63;7.00;;;;;;;;;;6216694;28;20025;-68
2020/12/03 16:04:07;;;;;;;10.47;7.20;;;;;;;;;;6202074;28;20034;-69
2020/12/03 16:07:07;;;;;;;9.67;6.60;;;;;;;;;;6219076;28;20038;-68
2020/12/03 16:10:08;;;;;;;11.40;7.07;;;;;;;;;;6216881;28;20058;-69
2020/12/03 16:13:08;;;;;;;10.77;6.60;;;;;;;;;;6214078;28;20025;-68
2020/12/03 16:16:08;;;;;;;14.83;8.73;;;;;;;;;;6192862;28;20069;-68
2020/12/03 16:19:09;;;;;;;12.70;8.10;;;;;;;;;;6205340;28;20133;-68
2020/12/03 16:22:09;;;;;;;10.87;7.40;;;;;;;;;;6207511;28;20041;-68
2020/12/03 16:25:09;;;;;;;10.40;8.00;;;;;;;;;;6205734;28;20029;-69
2020/12/03 16:28:10;;;;;;;12.47;7.47;;;;;;;;;;6212254;28;20772;-69
2020/12/03 16:31:11;;;;;;;12.37;8.17;;;;;;;;;;6194971;28;20532;-69
2020/12/03 16:34:12;;;;;;;13.52;7.88;;;;;;;;;;6204020;28;20432;-69
2020/12/03 16:37:12;;;;;;;13.80;9.13;;;;;;;;;;6197317;28;20038;-69
2020/12/03 16:40:13;;;;;;;13.97;9.80;;;;;;;;;;6210012;28;20026;-69
2020/12/03 16:43:14;;;;;;;17.00;10.32;;;;;;;;;;6201087;28;20034;-69
2020/12/03 16:46:14;;;;;;;17.97;10.67;;;;;;;;;;6202736;28;20105;-68
2020/12/03 16:49:15;;;;;;;19.27;10.45;;;;;;;;;;6202455;28;20076;-68
2020/12/03 16:52:15;;;;;;;18.33;10.33;;;;;;;;;;6199469;28;20062;-69
2020/12/03 16:55:16;;;;;;;16.50;10.80;;;;;;;;;;6206175;28;20859;-68
2020/12/03 16:58:16;;;;;;;18.17;10.33;;;;;;;;;;6206852;28;20113;-68
2020/12/03 17:01:16;;;;;;;19.27;11.17;;;;;;;;;;6209549;28;20034;-68
2020/12/03 17:04:17;;;;;;;19.03;10.90;;;;;;;;;;6210105;28;20045;-68
2020/12/03 17:07:17;;;;;;;24.30;12.17;;;;;;;;;;6206774;28;20030;-68
2020/12/03 17:10:17;;;;;;;23.93;11.87;;;;;;;;;;6204435;28;20381;-68
2020/12/03 17:13:18;;;;;;;25.97;11.53;;;;;;;;;;6204286;28;20026;-71
2020/12/03 17:16:18;;;;;;;18.10;10.40;;;;;;;;;;6193762;28;20053;-72
2020/12/03 17:19:19;;;;;;;16.00;9.27;;;;;;;;;;6201988;28;20467;-71
2020/12/03 17:22:19;;;;;;;17.73;9.67;;;;;;;;;;6201868;28;20057;-73
2020/12/03 17:25:20;;;;;;;14.07;8.30;;;;;;;;;;6204942;28;20049;-72
2020/12/03 17:28:20;;;;;;;16.37;8.83;;;;;;;;;;6192109;28;20033;-72
2020/12/03 17:31:20;;;;;;;15.40;8.93;;;;;;;;;;6172590;28;20081;-73
2020/12/03 17:34:21;;;;;;;13.97;8.70;;;;;;;;;;6214211;28;20125;-72
2020/12/03 17:37:21;;;;;;;15.70;8.50;;;;;;;;;;6220703;28;20049;-67
2020/12/03 17:40:22;;;;;;;12.90;7.90;;;;;;;;;;6215727;28;20183;-67
2020/12/03 17:43:22;;;;;;;12.97;8.00;;;;;;;;;;6221172;28;20021;-69
2020/12/03 17:46:23;;;;;;;14.07;8.60;;;;;;;;;;6221202;28;20026;-66
2020/12/03 17:49:24;;;;;;;14.97;8.23;;;;;;;;;;6219396;28;20097;-68
2020/12/03 17:52:25;;;;;;;16.73;8.50;;;;;;;;;;6221281;28;20172;-68
2020/12/03 17:55:25;;;;;;;14.07;8.07;;;;;;;;;;6221636;28;20029;-70
2020/12/03 17:58:25;;;;;;;15.33;8.40;;;;;;;;;;6217891;28;20030;-68
2020/12/03 18:01:26;;;;;;;13.20;8.37;;;;;;;;;;6221809;28;20041;-68
2020/12/03 18:04:30;;;;;;;16.57;8.73;;;;;;;;;;6221730;28;20104;-66
2020/12/03 18:07:30;;;;;;;15.18;8.40;;;;;;;;;;6216698;28;20028;-70